createdAt,value
2022-08-14T00:02:03.105Z,20.00
2022-08-14T00:04:42.216Z,19.90
2022-08-14T00:07:13.946Z,20.00
2022-08-14T00:15:25.602Z,19.90
2022-08-14T00:20:36.075Z,19.90
2022-08-14T00:25:59.249Z,19.80
2022-08-14T00:28:36.013Z,19.80
2022-08-14T00:31:07.737Z,19.80
2022-08-14T00:33:51.985Z,19.80
2022-08-14T00:36:36.593Z,19.80
2022-08-14T00:41:36.770Z,19.70
2022-08-14T00:46:33.725Z,19.70
2022-08-14T00:51:34.778Z,19.70
2022-08-14T00:54:11.192Z,19.70
2022-08-14T00:59:16.195Z,19.60
2022-08-14T01:01:44.281Z,19.60
2022-08-14T01:04:38.281Z,19.50
2022-08-14T01:09:32.111Z,19.50
2022-08-14T01:16:59.342Z,19.50
2022-08-14T01:24:47.377Z,19.60
2022-08-14T01:27:19.383Z,19.60
2022-08-14T01:30:00.719Z,19.60
2022-08-14T01:35:17.181Z,19.60
2022-08-14T01:40:36.534Z,19.50
2022-08-14T01:43:18.558Z,19.50
2022-08-14T01:51:05.729Z,19.40
2022-08-14T01:53:48.372Z,19.40
2022-08-14T01:58:58.030Z,19.40
2022-08-14T02:01:26.517Z,19.40
2022-08-14T02:03:56.200Z,19.40
2022-08-14T02:11:46.292Z,19.40
2022-08-14T02:14:14.379Z,19.40
2022-08-14T02:16:48.169Z,19.50
2022-08-14T02:19:19.121Z,19.60
2022-08-14T02:21:50.604Z,19.60
2022-08-14T02:24:39.131Z,19.60
2022-08-14T02:35:18.745Z,19.40
2022-08-14T02:37:49.321Z,19.40
2022-08-14T02:40:32.148Z,19.40
2022-08-14T02:45:38.266Z,19.30
2022-08-14T02:49:04.920Z,19.30
2022-08-14T02:51:01.206Z,19.20
2022-08-14T02:53:29.746Z,19.20
2022-08-14T02:56:02.578Z,19.10
2022-08-14T02:58:31.277Z,19.00
2022-08-14T03:00:59.851Z,19.00
2022-08-14T03:06:06.232Z,19.10
2022-08-14T03:08:37.971Z,19.10
2022-08-14T03:11:09.432Z,19.00
2022-08-14T03:13:39.527Z,19.10
2022-08-14T03:16:20.381Z,19.10
2022-08-14T03:18:55.417Z,19.10
2022-08-14T03:21:24.517Z,19.10
2022-08-14T03:24:21.369Z,19.10
2022-08-14T03:29:26.574Z,19.10
2022-08-14T03:31:53.839Z,19.10
2022-08-14T03:34:24.752Z,19.00
2022-08-14T03:45:25.121Z,18.90
2022-08-14T03:47:58.801Z,18.90
2022-08-14T03:50:31.721Z,19.00
2022-08-14T03:53:03.229Z,19.00
2022-08-14T03:55:30.966Z,19.00
2022-08-14T03:58:00.435Z,19.00
2022-08-14T04:00:43.154Z,19.10
2022-08-14T04:03:23.516Z,19.10
2022-08-14T04:05:51.106Z,19.10
2022-08-14T04:08:30.157Z,19.10
2022-08-14T04:11:02.068Z,19.00
2022-08-14T04:13:34.068Z,18.90
2022-08-14T04:16:12.338Z,18.90
2022-08-14T04:18:45.816Z,18.90
2022-08-14T04:21:14.883Z,18.90
2022-08-14T04:26:14.590Z,19.00
2022-08-14T04:29:09.078Z,19.00
2022-08-14T04:33:01.290Z,19.10
2022-08-14T04:37:22.048Z,19.10
2022-08-14T04:42:54.689Z,19.00
2022-08-14T04:45:26.019Z,19.00
2022-08-14T04:51:04.552Z,19.10
2022-08-14T04:53:35.672Z,19.10
2022-08-14T04:56:05.764Z,19.10
2022-08-14T05:01:13.011Z,19.10
2022-08-14T05:03:46.594Z,19.10
2022-08-14T05:09:00.872Z,19.30
2022-08-14T05:14:34.642Z,19.40
2022-08-14T05:19:18.166Z,19.40
2022-08-14T05:22:00.013Z,19.50
2022-08-14T05:27:04.372Z,19.50
2022-08-14T05:29:31.248Z,19.60
2022-08-14T05:39:31.328Z,19.80
2022-08-14T05:41:59.103Z,19.90
2022-08-14T05:44:30.150Z,20.00
2022-08-14T05:46:58.662Z,20.10
2022-08-14T05:49:33.446Z,20.10
2022-08-14T05:54:35.374Z,20.50
2022-08-14T05:57:04.506Z,20.60
2022-08-14T05:59:38.694Z,20.70
2022-08-14T06:07:00.550Z,21.00
2022-08-14T06:12:02.442Z,21.40
2022-08-14T06:14:29.774Z,21.90
2022-08-14T06:16:56.730Z,23.00
2022-08-14T06:21:58.499Z,25.50
2022-08-14T06:26:56.884Z,27.40
2022-08-14T06:29:34.570Z,28.00
2022-08-14T06:32:37.474Z,27.40
2022-08-14T06:35:11.182Z,26.70
2022-08-14T06:37:58.226Z,26.00
2022-08-14T06:40:28.481Z,25.40
2022-08-14T06:43:00.350Z,25.00
2022-08-14T06:47:58.816Z,24.40
2022-08-14T06:50:28.754Z,24.30
2022-08-14T06:52:59.019Z,24.20
2022-08-14T06:55:27.948Z,24.20
2022-08-14T06:57:56.240Z,24.20
2022-08-14T07:00:30.834Z,24.20
2022-08-14T07:03:17.813Z,24.30
2022-08-14T07:05:57.942Z,24.40
2022-08-14T07:08:31.465Z,24.50
2022-08-14T07:11:01.003Z,24.60
2022-08-14T07:13:30.752Z,24.70
2022-08-14T07:15:59.010Z,24.80
2022-08-14T07:18:29.837Z,24.80
2022-08-14T07:20:58.565Z,25.00
2022-08-14T07:23:26.619Z,25.00
2022-08-14T07:25:56.844Z,25.10
2022-08-14T07:28:43.130Z,25.10
2022-08-14T07:31:12.213Z,25.20
2022-08-14T07:33:50.376Z,25.30
2022-08-14T07:36:26.550Z,25.40
2022-08-14T07:41:23.825Z,25.50
2022-08-14T07:43:55.586Z,25.70
2022-08-14T07:46:28.372Z,25.80
2022-08-14T07:51:24.035Z,25.90
2022-08-14T07:56:43.855Z,26.10
2022-08-14T08:01:48.144Z,26.30
2022-08-14T08:04:27.055Z,26.30
2022-08-14T08:06:54.800Z,26.40
2022-08-14T08:09:32.034Z,26.50
2022-08-14T08:12:09.347Z,26.50
2022-08-14T08:14:56.037Z,26.60
2022-08-14T08:17:35.019Z,26.70
2022-08-14T08:20:20.563Z,26.80
2022-08-14T08:22:56.649Z,26.80
2022-08-14T08:25:33.996Z,26.70
2022-08-14T08:28:22.346Z,26.80
2022-08-14T08:30:57.949Z,26.90
2022-08-14T08:33:37.332Z,26.90
2022-08-14T08:36:12.902Z,27.00
2022-08-14T08:39:17.792Z,27.20
2022-08-14T08:41:45.843Z,27.20
2022-08-14T08:44:31.791Z,27.20
2022-08-14T08:47:05.793Z,27.20
2022-08-14T08:49:43.081Z,27.20
2022-08-14T08:52:25.348Z,27.30
2022-08-14T08:57:25.662Z,27.50
2022-08-14T09:05:02.161Z,27.80
2022-08-14T09:07:29.270Z,27.90
2022-08-14T09:09:59.890Z,27.90
2022-08-14T09:12:31.571Z,27.90
2022-08-14T09:14:59.188Z,27.90
2022-08-14T09:17:26.385Z,27.90
2022-08-14T09:19:53.951Z,27.90
2022-08-14T09:22:34.951Z,28.00
2022-08-14T09:25:07.054Z,28.20
2022-08-14T09:27:35.039Z,28.20
2022-08-14T09:33:26.454Z,28.20
2022-08-14T09:35:56.622Z,28.30
2022-08-14T09:38:46.506Z,28.30
2022-08-14T09:42:21.620Z,28.30
2022-08-14T09:44:42.811Z,28.40
2022-08-14T09:47:14.927Z,28.50
2022-08-14T09:49:52.957Z,28.50
2022-08-14T09:55:02.873Z,28.50
2022-08-14T09:57:31.326Z,28.70
2022-08-14T10:02:28.408Z,28.90
2022-08-14T10:05:11.327Z,29.00
2022-08-14T10:07:53.540Z,29.10
2022-08-14T10:10:41.768Z,29.20
2022-08-14T10:13:22.501Z,29.20
2022-08-14T10:15:51.342Z,29.30
2022-08-14T10:18:21.450Z,29.40
2022-08-14T10:21:00.868Z,29.50
2022-08-14T10:23:40.418Z,29.60
2022-08-14T10:26:09.611Z,29.60
2022-08-14T10:29:18.654Z,29.80
2022-08-14T10:31:44.502Z,29.80
2022-08-14T10:34:18.568Z,29.80
2022-08-14T10:36:50.182Z,29.80
2022-08-14T10:39:29.975Z,29.90
2022-08-14T10:42:16.587Z,30.00
2022-08-14T10:44:48.813Z,30.00
2022-08-14T10:47:41.637Z,30.10
2022-08-14T10:50:06.459Z,30.20
2022-08-14T10:52:36.148Z,30.30
2022-08-14T10:55:19.449Z,30.30
2022-08-14T10:57:55.868Z,30.40
2022-08-14T11:00:30.354Z,30.50
2022-08-14T11:05:41.342Z,30.30
2022-08-14T11:08:12.745Z,30.30
2022-08-14T11:10:39.748Z,30.50
2022-08-14T11:15:37.705Z,30.10
2022-08-14T11:18:08.562Z,29.90
2022-08-14T11:20:42.321Z,30.00
2022-08-14T11:23:18.146Z,30.20
2022-08-14T11:25:53.140Z,30.40
2022-08-14T11:28:47.832Z,30.50
2022-08-14T11:31:13.987Z,30.40
2022-08-14T11:33:41.604Z,30.30
2022-08-14T11:36:17.787Z,30.20
2022-08-14T11:38:46.312Z,30.30
2022-08-14T11:41:17.333Z,30.40
2022-08-14T11:43:58.082Z,30.70
2022-08-14T11:46:29.486Z,31.00
2022-08-14T11:49:03.764Z,31.00
2022-08-14T11:51:36.027Z,30.80
2022-08-14T11:54:06.194Z,30.80
2022-08-14T11:56:37.321Z,30.80
2022-08-14T11:59:06.862Z,30.70
2022-08-14T12:04:31.838Z,30.60
2022-08-14T12:07:01.679Z,30.40
2022-08-14T12:09:33.248Z,30.20
2022-08-14T12:12:01.962Z,30.20
2022-08-14T12:14:34.910Z,30.10
2022-08-14T12:17:12.331Z,30.10
2022-08-14T12:19:51.528Z,30.10
2022-08-14T12:22:45.401Z,30.20
2022-08-14T12:25:24.747Z,30.30
2022-08-14T12:27:58.841Z,30.30
2022-08-14T12:30:43.369Z,30.30
2022-08-14T12:33:30.456Z,30.40
2022-08-14T12:36:04.659Z,30.50
2022-08-14T12:38:43.322Z,30.50
2022-08-14T12:41:24.252Z,30.50
2022-08-14T12:44:01.837Z,30.60
2022-08-14T12:46:36.784Z,30.90
2022-08-14T12:49:20.393Z,31.20
2022-08-14T12:51:59.605Z,31.40
2022-08-14T12:54:29.196Z,31.50
2022-08-14T12:57:18.679Z,31.70
2022-08-14T13:02:25.650Z,32.10
2022-08-14T13:04:55.737Z,32.10
2022-08-14T13:09:55.916Z,32.30
2022-08-14T13:12:32.216Z,32.40
2022-08-14T13:15:08.926Z,32.40
2022-08-14T13:17:51.785Z,32.30
2022-08-14T13:20:23.491Z,32.30
2022-08-14T13:22:54.377Z,32.20
2022-08-14T13:25:25.425Z,32.10
2022-08-14T13:27:55.095Z,32.10
2022-08-14T13:30:24.830Z,32.00
2022-08-14T13:32:58.089Z,32.00
2022-08-14T13:35:26.081Z,32.10
2022-08-14T13:37:53.997Z,32.30
2022-08-14T13:40:26.638Z,32.50
2022-08-14T13:42:57.263Z,32.50
2022-08-14T13:45:59.425Z,32.60
2022-08-14T13:48:19.186Z,32.50
2022-08-14T13:51:03.702Z,32.60
2022-08-14T13:53:37.862Z,32.80
2022-08-14T13:56:06.625Z,32.90
2022-08-14T13:58:46.894Z,32.80
2022-08-14T14:01:18.879Z,32.80
2022-08-14T14:03:53.024Z,32.90
2022-08-14T14:06:23.798Z,33.00
2022-08-14T14:08:56.085Z,33.00
2022-08-14T14:14:00.248Z,33.20
2022-08-14T14:16:30.899Z,33.30
2022-08-14T14:19:08.751Z,33.40
2022-08-14T14:21:37.514Z,33.50
2022-08-14T14:26:33.164Z,33.80
2022-08-14T14:29:03.203Z,33.60
2022-08-14T14:31:30.951Z,33.80
2022-08-14T14:34:07.555Z,33.70
2022-08-14T14:36:44.029Z,33.50
2022-08-14T14:39:21.329Z,33.40
2022-08-14T14:41:55.990Z,33.00
2022-08-14T14:44:32.583Z,32.50
2022-08-14T14:47:00.681Z,32.20
2022-08-14T14:49:41.726Z,32.00
2022-08-14T14:52:23.220Z,32.00
2022-08-14T14:54:53.690Z,32.20
2022-08-14T14:59:49.998Z,32.50
2022-08-14T15:02:36.900Z,32.60
2022-08-14T15:05:08.074Z,32.80
2022-08-14T15:07:36.412Z,32.70
2022-08-14T15:10:05.531Z,32.60
2022-08-14T15:12:57.657Z,32.60
2022-08-14T15:17:54.833Z,32.60
2022-08-14T15:23:00.922Z,32.50
2022-08-14T15:25:31.770Z,32.70
2022-08-14T15:28:00.725Z,32.80
2022-08-14T15:30:32.646Z,32.70
2022-08-14T15:35:29.698Z,32.40
2022-08-14T15:38:13.737Z,32.30
2022-08-14T15:40:51.524Z,32.20
2022-08-14T15:43:25.401Z,32.20
2022-08-14T15:45:56.192Z,32.20
2022-08-14T15:53:22.737Z,32.10
2022-08-14T15:55:53.050Z,32.10
2022-08-14T15:58:21.797Z,32.00
2022-08-14T16:01:07.701Z,32.10
2022-08-14T16:03:40.865Z,32.10
2022-08-14T16:06:15.423Z,32.30
2022-08-14T16:08:50.025Z,32.30
2022-08-14T16:11:21.444Z,32.30
2022-08-14T16:16:47.138Z,32.10
2022-08-14T16:19:18.781Z,32.00
2022-08-14T16:24:36.065Z,32.00
2022-08-14T16:27:34.154Z,32.00
2022-08-14T16:30:06.359Z,32.00
2022-08-14T16:32:55.676Z,32.00
2022-08-14T16:35:42.291Z,31.90
2022-08-14T16:38:46.238Z,31.90
2022-08-14T16:43:45.724Z,31.90
2022-08-14T16:46:22.018Z,31.70
2022-08-14T16:51:24.204Z,31.50
2022-08-14T16:53:51.208Z,31.30
2022-08-14T16:56:25.395Z,31.20
2022-08-14T16:59:13.086Z,31.20
2022-08-14T17:01:57.517Z,31.10
2022-08-14T17:04:29.235Z,31.10
2022-08-14T17:07:00.837Z,31.00
2022-08-14T17:09:45.549Z,30.90
2022-08-14T17:12:28.440Z,30.90
2022-08-14T17:15:14.889Z,30.90
2022-08-14T17:17:57.666Z,30.80
2022-08-14T17:20:39.499Z,30.70
2022-08-14T17:23:12.163Z,30.50
2022-08-14T17:25:40.492Z,30.40
2022-08-14T17:28:50.486Z,30.30
2022-08-14T17:31:08.095Z,30.20
2022-08-14T17:33:40.785Z,30.00
2022-08-14T17:36:20.705Z,29.90
2022-08-14T17:39:08.489Z,29.80
2022-08-14T17:44:33.384Z,29.50
2022-08-14T17:47:10.098Z,29.50
2022-08-14T17:49:52.316Z,29.40
2022-08-14T17:52:35.238Z,29.30
2022-08-14T17:55:12.793Z,29.10
2022-08-14T17:57:58.695Z,29.00
2022-08-14T18:00:26.320Z,28.90
2022-08-14T18:02:54.514Z,28.80
2022-08-14T18:06:06.503Z,28.70
2022-08-14T18:08:33.895Z,28.70
2022-08-14T18:11:00.026Z,28.50
2022-08-14T18:13:51.237Z,28.40
2022-08-14T18:16:20.404Z,28.30
2022-08-14T18:18:49.654Z,28.00
2022-08-14T18:24:03.910Z,27.90
2022-08-14T18:26:49.970Z,27.80
2022-08-14T18:29:18.363Z,27.70
2022-08-14T18:34:32.039Z,27.40
2022-08-14T18:37:14.236Z,27.40
2022-08-14T18:40:01.883Z,27.30
2022-08-14T18:42:34.977Z,27.10
2022-08-14T18:53:11.343Z,26.70
2022-08-14T18:58:27.850Z,26.50
2022-08-14T19:01:00.330Z,26.40
2022-08-14T19:03:37.089Z,26.30
2022-08-14T19:06:05.379Z,26.10
2022-08-14T19:08:45.090Z,26.00
2022-08-14T19:11:39.691Z,25.90
2022-08-14T19:14:13.049Z,25.80
2022-08-14T19:16:42.897Z,25.70
2022-08-14T19:19:15.308Z,25.60
2022-08-14T19:21:56.180Z,25.50
2022-08-14T19:24:44.010Z,25.50
2022-08-14T19:27:23.897Z,25.40
2022-08-14T19:30:20.246Z,25.30
2022-08-14T19:32:50.710Z,25.20
2022-08-14T19:35:19.304Z,25.20
2022-08-14T19:37:57.314Z,25.10
2022-08-14T19:40:34.769Z,25.00
2022-08-14T19:43:06.414Z,24.90
2022-08-14T19:45:34.179Z,25.40
2022-08-14T19:50:38.985Z,25.00
2022-08-14T19:55:59.499Z,25.00
2022-08-14T20:01:37.294Z,24.70
2022-08-14T20:06:57.078Z,24.30
2022-08-14T20:12:34.557Z,24.40
2022-08-14T20:17:33.213Z,24.20
2022-08-14T20:20:20.985Z,24.20
2022-08-14T20:41:25.594Z,23.90
2022-08-14T20:49:16.586Z,23.80
2022-08-14T21:02:29.360Z,23.70
2022-08-14T21:05:16.890Z,23.40
2022-08-14T21:13:25.984Z,23.30
2022-08-14T21:38:34.222Z,23.00
2022-08-14T21:51:54.198Z,22.60
2022-08-14T21:54:32.381Z,22.60
2022-08-14T22:07:00.712Z,22.70
2022-08-14T22:22:22.637Z,22.00
2022-08-14T22:24:53.192Z,22.30
2022-08-14T22:48:10.926Z,22.30
2022-08-14T22:50:49.163Z,22.30
2022-08-14T22:53:21.819Z,22.40
2022-08-14T23:11:16.962Z,22.50
2022-08-14T23:29:11.520Z,22.20
2022-08-14T23:31:39.307Z,22.50
2022-08-14T23:44:21.795Z,22.30
2022-08-14T23:49:23.527Z,22.20
2022-08-14T23:52:49.321Z,22.10
2022-08-14T23:57:19.349Z,22.10
2022-08-14T23:59:54.206Z,22.10
